sensor_id;sensor_type;location;lat;lon;timestamp;pressure;altitude;pressure_sealevel;temperature
54746;BMP180;40640;48.130;11.356;2023-05-15T00:00:34;95140.00;;;12.20
54746;BMP180;40640;48.130;11.356;2023-05-15T00:04:38;95144.00;;;12.20
54746;BMP180;40640;48.130;11.356;2023-05-15T00:08:42;95151.00;;;12.10
54746;BMP180;40640;48.130;11.356;2023-05-15T00:12:45;95147.00;;;12.20
54746;BMP180;40640;48.130;11.356;2023-05-15T00:16:48;95139.00;;;12.10
54746;BMP180;40640;48.130;11.356;2023-05-15T00:20:51;95137.00;;;12.10
54746;BMP180;40640;48.130;11.356;2023-05-15T00:24:55;95134.00;;;12.10
54746;BMP180;40640;48.130;11.356;2023-05-15T00:29:00;95129.00;;;12.10
54746;BMP180;40640;48.130;11.356;2023-05-15T00:33:03;95120.00;;;12.00
54746;BMP180;40640;48.130;11.356;2023-05-15T00:37:05;95126.00;;;12.00
54746;BMP180;40640;48.130;11.356;2023-05-15T00:41:10;95115.00;;;12.00
54746;BMP180;40640;48.130;11.356;2023-05-15T00:45:14;95116.00;;;12.00
54746;BMP180;40640;48.130;11.356;2023-05-15T00:49:17;95117.00;;;12.00
54746;BMP180;40640;48.130;11.356;2023-05-15T00:53:20;95113.00;;;12.00
54746;BMP180;40640;48.130;11.356;2023-05-15T00:57:26;95110.00;;;11.90
54746;BMP180;40640;48.130;11.356;2023-05-15T01:01:29;95109.00;;;11.90
54746;BMP180;40640;48.130;11.356;2023-05-15T01:05:36;95109.00;;;11.90
54746;BMP180;40640;48.130;11.356;2023-05-15T01:09:42;95101.00;;;11.90
54746;BMP180;40640;48.130;11.356;2023-05-15T01:13:46;95100.00;;;11.90
54746;BMP180;40640;48.130;11.356;2023-05-15T01:17:49;95108.00;;;11.80
54746;BMP180;40640;48.130;11.356;2023-05-15T01:22:24;95106.00;;;11.80
54746;BMP180;40640;48.130;11.356;2023-05-15T01:31:09;95099.00;;;11.60
54746;BMP180;40640;48.130;11.356;2023-05-15T01:35:20;95097.00;;;11.60
54746;BMP180;40640;48.130;11.356;2023-05-15T01:39:26;95094.00;;;11.60
54746;BMP180;40640;48.130;11.356;2023-05-15T01:43:31;95096.00;;;11.60
54746;BMP180;40640;48.130;11.356;2023-05-15T01:47:39;95099.00;;;11.60
54746;BMP180;40640;48.130;11.356;2023-05-15T01:51:43;95098.00;;;11.60
54746;BMP180;40640;48.130;11.356;2023-05-15T01:55:47;95100.00;;;11.50
54746;BMP180;40640;48.130;11.356;2023-05-15T01:59:51;95087.00;;;11.50
54746;BMP180;40640;48.130;11.356;2023-05-15T02:03:58;95092.00;;;11.50
54746;BMP180;40640;48.130;11.356;2023-05-15T02:08:02;95098.00;;;11.50
54746;BMP180;40640;48.130;11.356;2023-05-15T02:12:06;95097.00;;;11.40
54746;BMP180;40640;48.130;11.356;2023-05-15T02:16:09;95096.00;;;11.30
54746;BMP180;40640;48.130;11.356;2023-05-15T02:20:13;95100.00;;;11.30
54746;BMP180;40640;48.130;11.356;2023-05-15T02:24:16;95099.00;;;11.10
54746;BMP180;40640;48.130;11.356;2023-05-15T02:28:35;95098.00;;;11.20
54746;BMP180;40640;48.130;11.356;2023-05-15T02:32:43;95088.00;;;11.20
54746;BMP180;40640;48.130;11.356;2023-05-15T02:36:51;95085.00;;;11.20
54746;BMP180;40640;48.130;11.356;2023-05-15T02:40:55;95089.00;;;11.30
54746;BMP180;40640;48.130;11.356;2023-05-15T02:45:00;95072.00;;;11.30
54746;BMP180;40640;48.130;11.356;2023-05-15T02:49:04;95077.00;;;11.30
54746;BMP180;40640;48.130;11.356;2023-05-15T02:53:09;95086.00;;;11.40
54746;BMP180;40640;48.130;11.356;2023-05-15T02:57:14;95082.00;;;11.30
54746;BMP180;40640;48.130;11.356;2023-05-15T03:01:17;95079.00;;;11.30
54746;BMP180;40640;48.130;11.356;2023-05-15T03:05:20;95076.00;;;11.30
54746;BMP180;40640;48.130;11.356;2023-05-15T03:09:25;95087.00;;;11.30
54746;BMP180;40640;48.130;11.356;2023-05-15T03:13:28;95086.00;;;11.40
54746;BMP180;40640;48.130;11.356;2023-05-15T03:17:31;95080.00;;;11.30
54746;BMP180;40640;48.130;11.356;2023-05-15T03:21:34;95079.00;;;11.40
54746;BMP180;40640;48.130;11.356;2023-05-15T03:25:38;95070.00;;;11.30
54746;BMP180;40640;48.130;11.356;2023-05-15T03:29:41;95072.00;;;11.20
54746;BMP180;40640;48.130;11.356;2023-05-15T03:33:45;95068.00;;;11.20
54746;BMP180;40640;48.130;11.356;2023-05-15T03:37:51;95082.00;;;11.20
54746;BMP180;40640;48.130;11.356;2023-05-15T03:41:55;95079.00;;;11.20
54746;BMP180;40640;48.130;11.356;2023-05-15T03:45:58;95070.00;;;11.20
54746;BMP180;40640;48.130;11.356;2023-05-15T03:50:01;95058.00;;;11.20
54746;BMP180;40640;48.130;11.356;2023-05-15T03:54:07;95078.00;;;11.10
54746;BMP180;40640;48.130;11.356;2023-05-15T03:58:11;95076.00;;;11.20
54746;BMP180;40640;48.130;11.356;2023-05-15T04:02:14;95078.00;;;11.20
54746;BMP180;40640;48.130;11.356;2023-05-15T04:06:17;95076.00;;;11.20
54746;BMP180;40640;48.130;11.356;2023-05-15T04:10:19;95067.00;;;11.10
54746;BMP180;40640;48.130;11.356;2023-05-15T04:14:24;95067.00;;;11.20
54746;BMP180;40640;48.130;11.356;2023-05-15T04:18:26;95062.00;;;11.10
54746;BMP180;40640;48.130;11.356;2023-05-15T04:22:29;95062.00;;;11.30
54746;BMP180;40640;48.130;11.356;2023-05-15T04:26:32;95077.00;;;11.20
54746;BMP180;40640;48.130;11.356;2023-05-15T04:30:37;95068.00;;;11.20
54746;BMP180;40640;48.130;11.356;2023-05-15T04:34:39;95076.00;;;11.20
54746;BMP180;40640;48.130;11.356;2023-05-15T04:38:43;95077.00;;;11.30
54746;BMP180;40640;48.130;11.356;2023-05-15T04:42:45;95078.00;;;11.40
54746;BMP180;40640;48.130;11.356;2023-05-15T04:46:49;95073.00;;;11.40
54746;BMP180;40640;48.130;11.356;2023-05-15T04:50:52;95085.00;;;11.50
54746;BMP180;40640;48.130;11.356;2023-05-15T04:54:55;95092.00;;;11.50
54746;BMP180;40640;48.130;11.356;2023-05-15T04:58:58;95089.00;;;11.60
54746;BMP180;40640;48.130;11.356;2023-05-15T05:03:03;95087.00;;;11.60
54746;BMP180;40640;48.130;11.356;2023-05-15T05:07:05;95096.00;;;11.60
54746;BMP180;40640;48.130;11.356;2023-05-15T05:11:08;95097.00;;;11.70
54746;BMP180;40640;48.130;11.356;2023-05-15T05:15:11;95100.00;;;11.80
54746;BMP180;40640;48.130;11.356;2023-05-15T05:19:15;95104.00;;;11.90
54746;BMP180;40640;48.130;11.356;2023-05-15T05:23:18;95104.00;;;12.00
54746;BMP180;40640;48.130;11.356;2023-05-15T05:27:21;95101.00;;;12.10
54746;BMP180;40640;48.130;11.356;2023-05-15T05:31:24;95112.00;;;12.20
54746;BMP180;40640;48.130;11.356;2023-05-15T05:35:28;95113.00;;;12.30
54746;BMP180;40640;48.130;11.356;2023-05-15T05:39:31;95108.00;;;12.30
54746;BMP180;40640;48.130;11.356;2023-05-15T05:43:34;95114.00;;;12.30
54746;BMP180;40640;48.130;11.356;2023-05-15T05:47:37;95128.00;;;12.40
54746;BMP180;40640;48.130;11.356;2023-05-15T05:51:41;95120.00;;;12.50
54746;BMP180;40640;48.130;11.356;2023-05-15T05:55:44;95129.00;;;12.50
54746;BMP180;40640;48.130;11.356;2023-05-15T05:59:47;95133.00;;;12.60
54746;BMP180;40640;48.130;11.356;2023-05-15T06:03:50;95134.00;;;12.60
54746;BMP180;40640;48.130;11.356;2023-05-15T06:07:54;95131.00;;;12.70
54746;BMP180;40640;48.130;11.356;2023-05-15T06:11:58;95142.00;;;12.70
54746;BMP180;40640;48.130;11.356;2023-05-15T06:16:05;95130.00;;;12.80
54746;BMP180;40640;48.130;11.356;2023-05-15T06:20:08;95141.00;;;12.90
54746;BMP180;40640;48.130;11.356;2023-05-15T06:24:13;95138.00;;;12.90
54746;BMP180;40640;48.130;11.356;2023-05-15T06:28:16;95136.00;;;13.00
54746;BMP180;40640;48.130;11.356;2023-05-15T06:32:19;95134.00;;;13.20
54746;BMP180;40640;48.130;11.356;2023-05-15T06:36:22;95136.00;;;13.30
54746;BMP180;40640;48.130;11.356;2023-05-15T06:40:26;95143.00;;;13.40
54746;BMP180;40640;48.130;11.356;2023-05-15T06:44:29;95137.00;;;13.50
54746;BMP180;40640;48.130;11.356;2023-05-15T06:48:32;95145.00;;;13.50
54746;BMP180;40640;48.130;11.356;2023-05-15T06:52:35;95150.00;;;13.70
54746;BMP180;40640;48.130;11.356;2023-05-15T06:56:39;95145.00;;;13.80
54746;BMP180;40640;48.130;11.356;2023-05-15T07:00:42;95149.00;;;13.80
54746;BMP180;40640;48.130;11.356;2023-05-15T07:04:45;95160.00;;;13.70
54746;BMP180;40640;48.130;11.356;2023-05-15T07:08:48;95154.00;;;13.60
54746;BMP180;40640;48.130;11.356;2023-05-15T07:12:52;95157.00;;;13.50
54746;BMP180;40640;48.130;11.356;2023-05-15T07:16:55;95156.00;;;13.60
54746;BMP180;40640;48.130;11.356;2023-05-15T07:20:58;95156.00;;;13.70
54746;BMP180;40640;48.130;11.356;2023-05-15T07:25:00;95153.00;;;13.90
54746;BMP180;40640;48.130;11.356;2023-05-15T07:29:06;95152.00;;;14.20
54746;BMP180;40640;48.130;11.356;2023-05-15T07:33:10;95151.00;;;14.30
54746;BMP180;40640;48.130;11.356;2023-05-15T07:37:12;95147.00;;;14.40
54746;BMP180;40640;48.130;11.356;2023-05-15T07:41:17;95150.00;;;14.40
54746;BMP180;40640;48.130;11.356;2023-05-15T07:45:21;95146.00;;;14.70
54746;BMP180;40640;48.130;11.356;2023-05-15T07:49:25;95143.00;;;15.10
54746;BMP180;40640;48.130;11.356;2023-05-15T07:53:27;95149.00;;;15.80
54746;BMP180;40640;48.130;11.356;2023-05-15T07:57:30;95151.00;;;16.00
54746;BMP180;40640;48.130;11.356;2023-05-15T08:01:34;95145.00;;;15.50
54746;BMP180;40640;48.130;11.356;2023-05-15T08:05:38;95146.00;;;15.20
54746;BMP180;40640;48.130;11.356;2023-05-15T08:09:41;95142.00;;;15.20
54746;BMP180;40640;48.130;11.356;2023-05-15T08:13:43;95144.00;;;15.20
54746;BMP180;40640;48.130;11.356;2023-05-15T08:17:48;95142.00;;;15.20
54746;BMP180;40640;48.130;11.356;2023-05-15T08:21:51;95142.00;;;15.30
54746;BMP180;40640;48.130;11.356;2023-05-15T08:25:53;95141.00;;;15.50
54746;BMP180;40640;48.130;11.356;2023-05-15T08:29:56;95140.00;;;15.90
54746;BMP180;40640;48.130;11.356;2023-05-15T08:34:00;95148.00;;;16.20
54746;BMP180;40640;48.130;11.356;2023-05-15T08:38:03;95148.00;;;16.70
54746;BMP180;40640;48.130;11.356;2023-05-15T08:42:16;95156.00;;;17.10
54746;BMP180;40640;48.130;11.356;2023-05-15T08:46:22;95151.00;;;17.80
54746;BMP180;40640;48.130;11.356;2023-05-15T08:50:27;95157.00;;;18.60
54746;BMP180;40640;48.130;11.356;2023-05-15T08:54:31;95148.00;;;18.60
54746;BMP180;40640;48.130;11.356;2023-05-15T08:58:34;95142.00;;;18.70
54746;BMP180;40640;48.130;11.356;2023-05-15T09:02:37;95144.00;;;19.00
54746;BMP180;40640;48.130;11.356;2023-05-15T09:06:43;95150.00;;;19.80
54746;BMP180;40640;48.130;11.356;2023-05-15T09:10:46;95154.00;;;19.60
54746;BMP180;40640;48.130;11.356;2023-05-15T09:14:50;95144.00;;;19.30
54746;BMP180;40640;48.130;11.356;2023-05-15T09:18:53;95141.00;;;19.60
54746;BMP180;40640;48.130;11.356;2023-05-15T09:22:58;95131.00;;;20.00
54746;BMP180;40640;48.130;11.356;2023-05-15T09:27:02;95123.00;;;20.30
54746;BMP180;40640;48.130;11.356;2023-05-15T09:31:05;95120.00;;;20.30
54746;BMP180;40640;48.130;11.356;2023-05-15T09:35:27;95122.00;;;20.50
54746;BMP180;40640;48.130;11.356;2023-05-15T09:39:32;95123.00;;;20.10
54746;BMP180;40640;48.130;11.356;2023-05-15T09:43:36;95123.00;;;19.80
54746;BMP180;40640;48.130;11.356;2023-05-15T09:47:39;95122.00;;;19.10
54746;BMP180;40640;48.130;11.356;2023-05-15T09:51:42;95123.00;;;18.60
54746;BMP180;40640;48.130;11.356;2023-05-15T09:55:47;95122.00;;;18.50
54746;BMP180;40640;48.130;11.356;2023-05-15T09:59:50;95123.00;;;18.50
54746;BMP180;40640;48.130;11.356;2023-05-15T10:03:57;95124.00;;;18.80
54746;BMP180;40640;48.130;11.356;2023-05-15T10:08:00;95128.00;;;19.30
54746;BMP180;40640;48.130;11.356;2023-05-15T10:12:06;95111.00;;;19.80
54746;BMP180;40640;48.130;11.356;2023-05-15T10:16:10;95107.00;;;20.30
54746;BMP180;40640;48.130;11.356;2023-05-15T10:20:15;95100.00;;;19.80
54746;BMP180;40640;48.130;11.356;2023-05-15T10:24:19;95104.00;;;19.90
54746;BMP180;40640;48.130;11.356;2023-05-15T10:28:24;95092.00;;;19.90
54746;BMP180;40640;48.130;11.356;2023-05-15T10:32:28;95081.00;;;20.60
54746;BMP180;40640;48.130;11.356;2023-05-15T10:36:32;95075.00;;;21.30
54746;BMP180;40640;48.130;11.356;2023-05-15T10:40:36;95067.00;;;21.20
54746;BMP180;40640;48.130;11.356;2023-05-15T10:44:41;95070.00;;;20.80
54746;BMP180;40640;48.130;11.356;2023-05-15T10:48:44;95066.00;;;21.00
54746;BMP180;40640;48.130;11.356;2023-05-15T10:52:49;95065.00;;;21.00
54746;BMP180;40640;48.130;11.356;2023-05-15T10:56:54;95061.00;;;20.80
54746;BMP180;40640;48.130;11.356;2023-05-15T11:00:59;95060.00;;;21.20
54746;BMP180;40640;48.130;11.356;2023-05-15T11:05:03;95061.00;;;21.40
54746;BMP180;40640;48.130;11.356;2023-05-15T11:09:37;95055.00;;;21.70
54746;BMP180;40640;48.130;11.356;2023-05-15T11:18:22;95055.00;;;21.80
54746;BMP180;40640;48.130;11.356;2023-05-15T11:22:30;95049.00;;;21.90
54746;BMP180;40640;48.130;11.356;2023-05-15T11:26:33;95060.00;;;21.90
54746;BMP180;40640;48.130;11.356;2023-05-15T11:30:37;95048.00;;;21.30
54746;BMP180;40640;48.130;11.356;2023-05-15T11:34:42;95041.00;;;20.80
54746;BMP180;40640;48.130;11.356;2023-05-15T11:38:49;95047.00;;;20.30
54746;BMP180;40640;48.130;11.356;2023-05-15T11:43:15;95037.00;;;20.20
54746;BMP180;40640;48.130;11.356;2023-05-15T11:47:19;95037.00;;;20.30
54746;BMP180;40640;48.130;11.356;2023-05-15T11:51:24;95033.00;;;20.90
54746;BMP180;40640;48.130;11.356;2023-05-15T11:55:28;95040.00;;;22.70
54746;BMP180;40640;48.130;11.356;2023-05-15T11:59:32;95040.00;;;24.70
54746;BMP180;40640;48.130;11.356;2023-05-15T12:03:35;95071.00;;;23.80
54746;BMP180;40640;48.130;11.356;2023-05-15T12:07:41;95080.00;;;22.00
54746;BMP180;40640;48.130;11.356;2023-05-15T12:11:48;95082.00;;;20.70
54746;BMP180;40640;48.130;11.356;2023-05-15T12:15:53;95095.00;;;19.90
54746;BMP180;40640;48.130;11.356;2023-05-15T12:19:56;95104.00;;;18.90
54746;BMP180;40640;48.130;11.356;2023-05-15T12:24:01;95108.00;;;18.40
54746;BMP180;40640;48.130;11.356;2023-05-15T12:28:09;95097.00;;;18.20
54746;BMP180;40640;48.130;11.356;2023-05-15T12:32:13;95103.00;;;18.20
54746;BMP180;40640;48.130;11.356;2023-05-15T12:36:18;95097.00;;;18.30
54746;BMP180;40640;48.130;11.356;2023-05-15T12:40:23;95109.00;;;18.50
54746;BMP180;40640;48.130;11.356;2023-05-15T12:44:26;95112.00;;;19.00
54746;BMP180;40640;48.130;11.356;2023-05-15T12:48:30;95106.00;;;21.00
54746;BMP180;40640;48.130;11.356;2023-05-15T12:52:33;95115.00;;;20.70
54746;BMP180;40640;48.130;11.356;2023-05-15T12:56:37;95107.00;;;20.40
54746;BMP180;40640;48.130;11.356;2023-05-15T13:00:42;95103.00;;;21.70
54746;BMP180;40640;48.130;11.356;2023-05-15T13:04:46;95095.00;;;24.80
54746;BMP180;40640;48.130;11.356;2023-05-15T13:08:49;95095.00;;;22.60
54746;BMP180;40640;48.130;11.356;2023-05-15T13:12:55;95100.00;;;21.90
54746;BMP180;40640;48.130;11.356;2023-05-15T13:16:59;95108.00;;;21.50
54746;BMP180;40640;48.130;11.356;2023-05-15T13:21:03;95114.00;;;20.60
54746;BMP180;40640;48.130;11.356;2023-05-15T13:25:07;95121.00;;;21.40
54746;BMP180;40640;48.130;11.356;2023-05-15T13:29:11;95108.00;;;20.50
54746;BMP180;40640;48.130;11.356;2023-05-15T13:33:14;95106.00;;;19.50
54746;BMP180;40640;48.130;11.356;2023-05-15T13:37:17;95099.00;;;19.40
54746;BMP180;40640;48.130;11.356;2023-05-15T13:41:20;95105.00;;;19.30
54746;BMP180;40640;48.130;11.356;2023-05-15T13:45:24;95115.00;;;18.70
54746;BMP180;40640;48.130;11.356;2023-05-15T13:49:27;95111.00;;;18.20
54746;BMP180;40640;48.130;11.356;2023-05-15T13:53:30;95113.00;;;17.60
54746;BMP180;40640;48.130;11.356;2023-05-15T13:57:32;95121.00;;;17.30
54746;BMP180;40640;48.130;11.356;2023-05-15T14:01:37;95124.00;;;17.10
54746;BMP180;40640;48.130;11.356;2023-05-15T14:05:39;95132.00;;;16.80
54746;BMP180;40640;48.130;11.356;2023-05-15T14:09:42;95149.00;;;16.70
54746;BMP180;40640;48.130;11.356;2023-05-15T14:13:45;95168.00;;;16.70
54746;BMP180;40640;48.130;11.356;2023-05-15T14:17:49;95183.00;;;16.50
54746;BMP180;40640;48.130;11.356;2023-05-15T14:21:52;95179.00;;;16.40
54746;BMP180;40640;48.130;11.356;2023-05-15T14:25:55;95189.00;;;16.30
54746;BMP180;40640;48.130;11.356;2023-05-15T14:29:58;95192.00;;;16.20
54746;BMP180;40640;48.130;11.356;2023-05-15T14:34:02;95183.00;;;16.00
54746;BMP180;40640;48.130;11.356;2023-05-15T14:38:06;95186.00;;;16.00
54746;BMP180;40640;48.130;11.356;2023-05-15T14:42:09;95183.00;;;15.90
54746;BMP180;40640;48.130;11.356;2023-05-15T14:46:12;95178.00;;;15.30
54746;BMP180;40640;48.130;11.356;2023-05-15T14:50:17;95189.00;;;15.40
54746;BMP180;40640;48.130;11.356;2023-05-15T14:54:19;95191.00;;;15.60
54746;BMP180;40640;48.130;11.356;2023-05-15T14:58:22;95180.00;;;15.70
54746;BMP180;40640;48.130;11.356;2023-05-15T15:02:25;95180.00;;;15.90
54746;BMP180;40640;48.130;11.356;2023-05-15T15:06:29;95193.00;;;15.70
54746;BMP180;40640;48.130;11.356;2023-05-15T15:10:34;95196.00;;;15.50
54746;BMP180;40640;48.130;11.356;2023-05-15T15:14:37;95191.00;;;15.50
54746;BMP180;40640;48.130;11.356;2023-05-15T15:18:40;95186.00;;;15.30
54746;BMP180;40640;48.130;11.356;2023-05-15T15:22:44;95184.00;;;15.10
54746;BMP180;40640;48.130;11.356;2023-05-15T15:26:47;95180.00;;;15.00
54746;BMP180;40640;48.130;11.356;2023-05-15T15:30:50;95185.00;;;14.90
54746;BMP180;40640;48.130;11.356;2023-05-15T15:34:53;95172.00;;;14.90
54746;BMP180;40640;48.130;11.356;2023-05-15T15:38:59;95172.00;;;14.80
54746;BMP180;40640;48.130;11.356;2023-05-15T15:43:01;95169.00;;;14.90
54746;BMP180;40640;48.130;11.356;2023-05-15T15:47:04;95157.00;;;14.80
54746;BMP180;40640;48.130;11.356;2023-05-15T15:51:07;95155.00;;;15.10
54746;BMP180;40640;48.130;11.356;2023-05-15T15:55:11;95147.00;;;15.30
54746;BMP180;40640;48.130;11.356;2023-05-15T15:59:14;95143.00;;;15.20
54746;BMP180;40640;48.130;11.356;2023-05-15T16:03:17;95132.00;;;15.40
54746;BMP180;40640;48.130;11.356;2023-05-15T16:07:20;95147.00;;;15.30
54746;BMP180;40640;48.130;11.356;2023-05-15T16:11:24;95132.00;;;15.20
54746;BMP180;40640;48.130;11.356;2023-05-15T16:15:27;95140.00;;;15.00
54746;BMP180;40640;48.130;11.356;2023-05-15T16:19:30;95141.00;;;15.10
54746;BMP180;40640;48.130;11.356;2023-05-15T16:23:33;95133.00;;;14.80
54746;BMP180;40640;48.130;11.356;2023-05-15T16:27:37;95141.00;;;14.90
54746;BMP180;40640;48.130;11.356;2023-05-15T16:31:40;95157.00;;;14.80
54746;BMP180;40640;48.130;11.356;2023-05-15T16:35:43;95145.00;;;14.70
54746;BMP180;40640;48.130;11.356;2023-05-15T16:39:46;95156.00;;;14.70
54746;BMP180;40640;48.130;11.356;2023-05-15T16:43:50;95162.00;;;14.70
54746;BMP180;40640;48.130;11.356;2023-05-15T16:47:53;95165.00;;;14.70
54746;BMP180;40640;48.130;11.356;2023-05-15T16:51:56;95168.00;;;14.80
54746;BMP180;40640;48.130;11.356;2023-05-15T16:55:59;95167.00;;;14.80
54746;BMP180;40640;48.130;11.356;2023-05-15T17:00:05;95175.00;;;15.00
54746;BMP180;40640;48.130;11.356;2023-05-15T17:04:09;95179.00;;;15.00
54746;BMP180;40640;48.130;11.356;2023-05-15T17:08:12;95182.00;;;15.00
54746;BMP180;40640;48.130;11.356;2023-05-15T17:12:15;95183.00;;;15.00
54746;BMP180;40640;48.130;11.356;2023-05-15T17:16:19;95179.00;;;15.00
54746;BMP180;40640;48.130;11.356;2023-05-15T17:20:22;95191.00;;;15.00
54746;BMP180;40640;48.130;11.356;2023-05-15T17:24:25;95189.00;;;15.10
54746;BMP180;40640;48.130;11.356;2023-05-15T17:28:48;95184.00;;;15.30
54746;BMP180;40640;48.130;11.356;2023-05-15T17:32:52;95192.00;;;15.20
54746;BMP180;40640;48.130;11.356;2023-05-15T17:36:55;95197.00;;;15.20
54746;BMP180;40640;48.130;11.356;2023-05-15T17:40:58;95193.00;;;15.20
54746;BMP180;40640;48.130;11.356;2023-05-15T17:45:00;95191.00;;;15.20
54746;BMP180;40640;48.130;11.356;2023-05-15T17:49:05;95196.00;;;15.20
54746;BMP180;40640;48.130;11.356;2023-05-15T17:53:08;95198.00;;;15.10
54746;BMP180;40640;48.130;11.356;2023-05-15T17:57:10;95213.00;;;15.00
54746;BMP180;40640;48.130;11.356;2023-05-15T18:01:13;95211.00;;;14.80
54746;BMP180;40640;48.130;11.356;2023-05-15T18:05:19;95205.00;;;14.70
54746;BMP180;40640;48.130;11.356;2023-05-15T18:09:22;95223.00;;;14.60
54746;BMP180;40640;48.130;11.356;2023-05-15T18:13:25;95222.00;;;14.60
54746;BMP180;40640;48.130;11.356;2023-05-15T18:17:28;95225.00;;;14.50
54746;BMP180;40640;48.130;11.356;2023-05-15T18:21:32;95225.00;;;14.40
54746;BMP180;40640;48.130;11.356;2023-05-15T18:25:38;95222.00;;;14.20
54746;BMP180;40640;48.130;11.356;2023-05-15T18:29:41;95220.00;;;14.10
54746;BMP180;40640;48.130;11.356;2023-05-15T18:33:46;95213.00;;;13.90
54746;BMP180;40640;48.130;11.356;2023-05-15T18:37:50;95214.00;;;13.80
54746;BMP180;40640;48.130;11.356;2023-05-15T18:41:53;95223.00;;;13.40
54746;BMP180;40640;48.130;11.356;2023-05-15T18:45:56;95223.00;;;13.30
54746;BMP180;40640;48.130;11.356;2023-05-15T18:49:58;95229.00;;;13.20
54746;BMP180;40640;48.130;11.356;2023-05-15T18:54:03;95224.00;;;13.20
54746;BMP180;40640;48.130;11.356;2023-05-15T18:58:05;95232.00;;;13.20
54746;BMP180;40640;48.130;11.356;2023-05-15T19:02:09;95230.00;;;13.20
54746;BMP180;40640;48.130;11.356;2023-05-15T19:06:12;95235.00;;;13.00
54746;BMP180;40640;48.130;11.356;2023-05-15T19:10:21;95235.00;;;12.90
54746;BMP180;40640;48.130;11.356;2023-05-15T19:14:25;95232.00;;;12.90
54746;BMP180;40640;48.130;11.356;2023-05-15T19:18:27;95235.00;;;12.80
54746;BMP180;40640;48.130;11.356;2023-05-15T19:22:30;95238.00;;;12.90
54746;BMP180;40640;48.130;11.356;2023-05-15T19:26:35;95240.00;;;12.90
54746;BMP180;40640;48.130;11.356;2023-05-15T19:30:37;95236.00;;;12.90
54746;BMP180;40640;48.130;11.356;2023-05-15T19:34:40;95237.00;;;12.80
54746;BMP180;40640;48.130;11.356;2023-05-15T19:38:43;95241.00;;;12.70
54746;BMP180;40640;48.130;11.356;2023-05-15T19:42:47;95244.00;;;12.50
54746;BMP180;40640;48.130;11.356;2023-05-15T19:46:50;95255.00;;;12.40
54746;BMP180;40640;48.130;11.356;2023-05-15T19:50:55;95254.00;;;12.30
54746;BMP180;40640;48.130;11.356;2023-05-15T19:54:58;95249.00;;;12.30
54746;BMP180;40640;48.130;11.356;2023-05-15T19:59:02;95247.00;;;12.20
54746;BMP180;40640;48.130;11.356;2023-05-15T20:03:04;95246.00;;;12.30
54746;BMP180;40640;48.130;11.356;2023-05-15T20:07:07;95248.00;;;12.20
54746;BMP180;40640;48.130;11.356;2023-05-15T20:11:10;95243.00;;;12.10
54746;BMP180;40640;48.130;11.356;2023-05-15T20:15:15;95252.00;;;12.10
54746;BMP180;40640;48.130;11.356;2023-05-15T20:19:18;95246.00;;;12.00
54746;BMP180;40640;48.130;11.356;2023-05-15T20:23:24;95240.00;;;12.00
54746;BMP180;40640;48.130;11.356;2023-05-15T20:27:27;95231.00;;;12.00
54746;BMP180;40640;48.130;11.356;2023-05-15T20:31:31;95240.00;;;11.90
54746;BMP180;40640;48.130;11.356;2023-05-15T20:35:35;95240.00;;;11.90
54746;BMP180;40640;48.130;11.356;2023-05-15T20:39:39;95250.00;;;11.90
54746;BMP180;40640;48.130;11.356;2023-05-15T20:43:42;95250.00;;;11.80
54746;BMP180;40640;48.130;11.356;2023-05-15T20:47:46;95251.00;;;11.70
54746;BMP180;40640;48.130;11.356;2023-05-15T20:51:49;95238.00;;;11.70
54746;BMP180;40640;48.130;11.356;2023-05-15T20:55:51;95244.00;;;11.60
54746;BMP180;40640;48.130;11.356;2023-05-15T20:59:54;95247.00;;;11.60
54746;BMP180;40640;48.130;11.356;2023-05-15T21:03:58;95239.00;;;11.60
54746;BMP180;40640;48.130;11.356;2023-05-15T21:08:02;95245.00;;;11.60
54746;BMP180;40640;48.130;11.356;2023-05-15T21:12:05;95237.00;;;11.60
54746;BMP180;40640;48.130;11.356;2023-05-15T21:16:08;95243.00;;;11.70
54746;BMP180;40640;48.130;11.356;2023-05-15T21:20:12;95244.00;;;11.80
54746;BMP180;40640;48.130;11.356;2023-05-15T21:24:15;95239.00;;;11.80
54746;BMP180;40640;48.130;11.356;2023-05-15T21:28:18;95236.00;;;11.70
54746;BMP180;40640;48.130;11.356;2023-05-15T21:32:21;95245.00;;;11.70
54746;BMP180;40640;48.130;11.356;2023-05-15T21:36:26;95238.00;;;11.80
54746;BMP180;40640;48.130;11.356;2023-05-15T21:40:28;95245.00;;;11.70
54746;BMP180;40640;48.130;11.356;2023-05-15T21:44:31;95237.00;;;11.70
54746;BMP180;40640;48.130;11.356;2023-05-15T21:48:34;95233.00;;;11.70
54746;BMP180;40640;48.130;11.356;2023-05-15T21:52:38;95247.00;;;11.70
54746;BMP180;40640;48.130;11.356;2023-05-15T21:56:41;95252.00;;;11.70
54746;BMP180;40640;48.130;11.356;2023-05-15T22:00:44;95248.00;;;11.80
54746;BMP180;40640;48.130;11.356;2023-05-15T22:04:47;95248.00;;;11.80
54746;BMP180;40640;48.130;11.356;2023-05-15T22:08:51;95250.00;;;11.80
54746;BMP180;40640;48.130;11.356;2023-05-15T22:12:54;95255.00;;;11.70
54746;BMP180;40640;48.130;11.356;2023-05-15T22:17:03;95261.00;;;11.70
54746;BMP180;40640;48.130;11.356;2023-05-15T22:21:06;95259.00;;;11.80
54746;BMP180;40640;48.130;11.356;2023-05-15T22:25:10;95264.00;;;11.80
54746;BMP180;40640;48.130;11.356;2023-05-15T22:29:13;95267.00;;;11.80
54746;BMP180;40640;48.130;11.356;2023-05-15T22:33:16;95266.00;;;11.90
54746;BMP180;40640;48.130;11.356;2023-05-15T22:37:19;95264.00;;;11.90
54746;BMP180;40640;48.130;11.356;2023-05-15T22:41:23;95261.00;;;11.80
54746;BMP180;40640;48.130;11.356;2023-05-15T22:45:26;95271.00;;;11.80
54746;BMP180;40640;48.130;11.356;2023-05-15T22:49:29;95266.00;;;11.90
54746;BMP180;40640;48.130;11.356;2023-05-15T22:53:31;95259.00;;;11.90
54746;BMP180;40640;48.130;11.356;2023-05-15T22:57:36;95261.00;;;11.90
54746;BMP180;40640;48.130;11.356;2023-05-15T23:01:39;95260.00;;;11.90
54746;BMP180;40640;48.130;11.356;2023-05-15T23:05:42;95252.00;;;11.90
54746;BMP180;40640;48.130;11.356;2023-05-15T23:09:45;95256.00;;;12.00
54746;BMP180;40640;48.130;11.356;2023-05-15T23:13:49;95252.00;;;11.90